sensor_id;sensor_type;location;lat;lon;timestamp;pressure;altitude;pressure_sealevel;temperature;humidity
37848;BME280;23688;33.130;-117.188;2023-03-01T00:01:13;99568.00;;;11.88;80.75
37848;BME280;23688;33.130;-117.188;2023-03-01T00:03:40;99567.25;;;11.92;80.26
37848;BME280;23688;33.130;-117.188;2023-03-01T00:06:07;99569.06;;;11.93;79.73
37848;BME280;23688;33.130;-117.188;2023-03-01T00:08:34;99572.59;;;11.95;79.04
37848;BME280;23688;33.130;-117.188;2023-03-01T00:13:35;99570.09;;;11.98;78.38
37848;BME280;23688;33.130;-117.188;2023-03-01T00:16:04;99586.13;;;11.87;73.78
37848;BME280;23688;33.130;-117.188;2023-03-01T00:18:31;99559.75;;;11.77;80.85
37848;BME280;23688;33.130;-117.188;2023-03-01T00:20:58;99578.78;;;11.99;79.06
37848;BME280;23688;33.130;-117.188;2023-03-01T00:23:24;99576.06;;;11.51;79.74
37848;BME280;23688;33.130;-117.188;2023-03-01T00:25:51;99567.97;;;11.21;81.77
37848;BME280;23688;33.130;-117.188;2023-03-01T00:28:18;99569.00;;;11.24;84.41
37848;BME280;23688;33.130;-117.188;2023-03-01T00:30:45;99549.56;;;11.37;82.39
37848;BME280;23688;33.130;-117.188;2023-03-01T00:33:12;99558.00;;;11.31;82.55
37848;BME280;23688;33.130;-117.188;2023-03-01T00:35:42;99559.06;;;11.37;82.49
37848;BME280;23688;33.130;-117.188;2023-03-01T00:38:08;99555.22;;;11.49;82.26
37848;BME280;23688;33.130;-117.188;2023-03-01T00:40:36;99543.03;;;11.48;80.80
37848;BME280;23688;33.130;-117.188;2023-03-01T00:43:03;99554.22;;;11.46;80.92
37848;BME280;23688;33.130;-117.188;2023-03-01T00:45:30;99569.09;;;11.72;80.04
37848;BME280;23688;33.130;-117.188;2023-03-01T00:47:59;99560.72;;;11.34;81.41
37848;BME280;23688;33.130;-117.188;2023-03-01T00:50:25;99569.13;;;11.29;81.95
37848;BME280;23688;33.130;-117.188;2023-03-01T00:52:53;99566.41;;;11.03;83.00
37848;BME280;23688;33.130;-117.188;2023-03-01T00:55:19;99579.13;;;10.97;84.89
37848;BME280;23688;33.130;-117.188;2023-03-01T00:57:46;99574.09;;;11.00;87.02
37848;BME280;23688;33.130;-117.188;2023-03-01T01:00:12;99570.41;;;10.74;85.85
37848;BME280;23688;33.130;-117.188;2023-03-01T01:02:39;99573.81;;;10.52;86.91
37848;BME280;23688;33.130;-117.188;2023-03-01T01:05:06;99586.09;;;10.56;88.57
37848;BME280;23688;33.130;-117.188;2023-03-01T01:07:32;99587.97;;;10.60;88.70
37848;BME280;23688;33.130;-117.188;2023-03-01T01:09:59;99591.28;;;10.56;89.10
37848;BME280;23688;33.130;-117.188;2023-03-01T01:12:25;99601.94;;;10.43;88.82
37848;BME280;23688;33.130;-117.188;2023-03-01T01:14:52;99589.84;;;10.24;88.96
37848;BME280;23688;33.130;-117.188;2023-03-01T01:17:18;99595.09;;;10.25;89.46
37848;BME280;23688;33.130;-117.188;2023-03-01T01:19:44;99595.44;;;10.32;91.10
37848;BME280;23688;33.130;-117.188;2023-03-01T01:22:10;99593.84;;;10.35;90.01
37848;BME280;23688;33.130;-117.188;2023-03-01T01:24:37;99591.31;;;10.37;91.64
37848;BME280;23688;33.130;-117.188;2023-03-01T01:27:03;99594.38;;;10.28;91.84
37848;BME280;23688;33.130;-117.188;2023-03-01T01:29:29;99592.66;;;10.28;93.23
37848;BME280;23688;33.130;-117.188;2023-03-01T01:31:56;99590.66;;;10.23;93.79
37848;BME280;23688;33.130;-117.188;2023-03-01T01:34:22;99591.84;;;10.10;91.94
37848;BME280;23688;33.130;-117.188;2023-03-01T01:36:50;99585.16;;;9.96;92.98
37848;BME280;23688;33.130;-117.188;2023-03-01T01:39:18;99597.78;;;9.88;92.85
37848;BME280;23688;33.130;-117.188;2023-03-01T01:41:45;99596.47;;;9.78;93.33
37848;BME280;23688;33.130;-117.188;2023-03-01T01:44:16;99599.09;;;9.80;94.06
37848;BME280;23688;33.130;-117.188;2023-03-01T01:51:48;99591.38;;;9.62;95.67
37848;BME280;23688;33.130;-117.188;2023-03-01T01:54:26;99592.78;;;9.73;95.71
37848;BME280;23688;33.130;-117.188;2023-03-01T01:57:02;99592.50;;;9.86;95.55
37848;BME280;23688;33.130;-117.188;2023-03-01T01:59:31;99575.00;;;9.63;94.64
37848;BME280;23688;33.130;-117.188;2023-03-01T02:02:00;99591.53;;;9.84;95.15
37848;BME280;23688;33.130;-117.188;2023-03-01T02:04:29;99585.03;;;9.75;95.23
37848;BME280;23688;33.130;-117.188;2023-03-01T02:07:23;99572.13;;;9.57;95.85
37848;BME280;23688;33.130;-117.188;2023-03-01T02:09:51;99580.25;;;9.64;96.42
37848;BME280;23688;33.130;-117.188;2023-03-01T02:12:19;99595.81;;;9.64;96.75
37848;BME280;23688;33.130;-117.188;2023-03-01T02:14:46;99561.06;;;9.41;97.83
37848;BME280;23688;33.130;-117.188;2023-03-01T02:17:15;99579.16;;;9.59;98.00
37848;BME280;23688;33.130;-117.188;2023-03-01T02:20:20;99595.22;;;9.90;97.07
37848;BME280;23688;33.130;-117.188;2023-03-01T02:22:49;99587.41;;;9.88;97.13
37848;BME280;23688;33.130;-117.188;2023-03-01T02:30:25;99588.56;;;10.34;94.74
37848;BME280;23688;33.130;-117.188;2023-03-01T02:32:53;99584.66;;;10.43;94.40
37848;BME280;23688;33.130;-117.188;2023-03-01T02:35:22;99584.75;;;10.45;94.29
37848;BME280;23688;33.130;-117.188;2023-03-01T02:37:49;99577.06;;;10.48;94.34
37848;BME280;23688;33.130;-117.188;2023-03-01T02:40:17;99582.28;;;10.48;94.42
37848;BME280;23688;33.130;-117.188;2023-03-01T02:42:51;99589.31;;;10.50;93.99
37848;BME280;23688;33.130;-117.188;2023-03-01T02:45:18;99582.44;;;10.51;93.70
37848;BME280;23688;33.130;-117.188;2023-03-01T02:47:44;99578.16;;;10.53;93.86
37848;BME280;23688;33.130;-117.188;2023-03-01T02:50:52;99576.31;;;10.50;93.62
37848;BME280;23688;33.130;-117.188;2023-03-01T02:53:39;99580.50;;;10.47;93.21
37848;BME280;23688;33.130;-117.188;2023-03-01T02:56:08;99560.66;;;10.28;93.52
37848;BME280;23688;33.130;-117.188;2023-03-01T02:58:40;99563.44;;;10.33;93.81
37848;BME280;23688;33.130;-117.188;2023-03-01T03:01:14;99551.16;;;10.28;93.27
37848;BME280;23688;33.130;-117.188;2023-03-01T03:03:42;99551.44;;;10.35;93.29
37848;BME280;23688;33.130;-117.188;2023-03-01T03:06:08;99550.88;;;10.42;93.03
37848;BME280;23688;33.130;-117.188;2023-03-01T03:08:35;99534.06;;;10.34;92.70
37848;BME280;23688;33.130;-117.188;2023-03-01T03:11:01;99535.44;;;10.25;92.26
37848;BME280;23688;33.130;-117.188;2023-03-01T03:13:30;99549.03;;;10.20;92.66
37848;BME280;23688;33.130;-117.188;2023-03-01T03:15:58;99551.47;;;10.17;92.87
37848;BME280;23688;33.130;-117.188;2023-03-01T03:18:24;99555.94;;;10.19;92.34
37848;BME280;23688;33.130;-117.188;2023-03-01T03:20:54;99553.94;;;10.14;92.63
37848;BME280;23688;33.130;-117.188;2023-03-01T03:23:21;99543.44;;;10.11;92.29
37848;BME280;23688;33.130;-117.188;2023-03-01T03:25:49;99539.09;;;10.10;92.57
37848;BME280;23688;33.130;-117.188;2023-03-01T03:28:18;99550.06;;;10.04;92.61
37848;BME280;23688;33.130;-117.188;2023-03-01T03:30:45;99567.75;;;10.13;92.55
37848;BME280;23688;33.130;-117.188;2023-03-01T03:33:12;99542.41;;;10.07;92.53
37848;BME280;23688;33.130;-117.188;2023-03-01T03:35:49;99555.84;;;10.18;93.03
37848;BME280;23688;33.130;-117.188;2023-03-01T03:38:18;99556.75;;;10.18;92.66
37848;BME280;23688;33.130;-117.188;2023-03-01T03:40:59;99561.13;;;10.19;93.25
37848;BME280;23688;33.130;-117.188;2023-03-01T03:43:30;99561.81;;;10.15;93.08
37848;BME280;23688;33.130;-117.188;2023-03-01T03:45:57;99572.31;;;10.18;93.12
37848;BME280;23688;33.130;-117.188;2023-03-01T03:48:24;99573.25;;;10.20;93.56
37848;BME280;23688;33.130;-117.188;2023-03-01T03:50:55;99565.47;;;10.20;93.60
37848;BME280;23688;33.130;-117.188;2023-03-01T03:53:24;99566.44;;;10.22;92.98
37848;BME280;23688;33.130;-117.188;2023-03-01T03:55:51;99566.72;;;10.28;93.17
37848;BME280;23688;33.130;-117.188;2023-03-01T03:58:19;99572.44;;;10.21;93.54
37848;BME280;23688;33.130;-117.188;2023-03-01T04:00:47;99576.31;;;10.30;93.00
37848;BME280;23688;33.130;-117.188;2023-03-01T04:03:15;99564.81;;;10.24;93.06
37848;BME280;23688;33.130;-117.188;2023-03-01T04:05:44;99570.53;;;10.17;93.09
37848;BME280;23688;33.130;-117.188;2023-03-01T04:08:11;99581.28;;;10.26;92.83
37848;BME280;23688;33.130;-117.188;2023-03-01T04:10:40;99556.50;;;10.12;92.84
37848;BME280;23688;33.130;-117.188;2023-03-01T04:13:10;99564.84;;;10.26;92.25
37848;BME280;23688;33.130;-117.188;2023-03-01T04:15:37;99563.25;;;10.28;92.04
37848;BME280;23688;33.130;-117.188;2023-03-01T04:18:08;99557.06;;;10.26;91.85
37848;BME280;23688;33.130;-117.188;2023-03-01T04:20:35;99574.84;;;10.36;91.75
37848;BME280;23688;33.130;-117.188;2023-03-01T04:23:08;99569.03;;;10.42;91.57
37848;BME280;23688;33.130;-117.188;2023-03-01T04:25:52;99569.72;;;10.38;91.40
37848;BME280;23688;33.130;-117.188;2023-03-01T04:28:32;99560.03;;;10.34;91.29
37848;BME280;23688;33.130;-117.188;2023-03-01T04:31:06;99566.50;;;10.43;91.72
37848;BME280;23688;33.130;-117.188;2023-03-01T04:33:47;99562.13;;;10.42;91.15
37848;BME280;23688;33.130;-117.188;2023-03-01T04:36:15;99554.91;;;10.35;90.93
37848;BME280;23688;33.130;-117.188;2023-03-01T04:38:45;99537.41;;;10.31;91.09
37848;BME280;23688;33.130;-117.188;2023-03-01T04:41:16;99540.94;;;10.32;91.07
37848;BME280;23688;33.130;-117.188;2023-03-01T04:43:43;99556.53;;;10.33;90.66
37848;BME280;23688;33.130;-117.188;2023-03-01T04:46:15;99564.53;;;10.38;91.11
37848;BME280;23688;33.130;-117.188;2023-03-01T04:48:43;99560.16;;;10.17;92.68
37848;BME280;23688;33.130;-117.188;2023-03-01T04:51:11;99557.63;;;9.80;98.87
37848;BME280;23688;33.130;-117.188;2023-03-01T04:53:42;99556.06;;;9.83;100.00
37848;BME280;23688;33.130;-117.188;2023-03-01T04:56:09;99543.53;;;9.93;100.00
37848;BME280;23688;33.130;-117.188;2023-03-01T04:58:36;99542.97;;;10.00;100.00
37848;BME280;23688;33.130;-117.188;2023-03-01T05:01:09;99545.94;;;10.09;100.00
37848;BME280;23688;33.130;-117.188;2023-03-01T05:03:42;99539.13;;;10.11;100.00
37848;BME280;23688;33.130;-117.188;2023-03-01T05:06:09;99538.44;;;10.15;100.00
37848;BME280;23688;33.130;-117.188;2023-03-01T05:08:39;99535.03;;;10.16;100.00
37848;BME280;23688;33.130;-117.188;2023-03-01T05:11:07;99530.59;;;10.14;100.00
37848;BME280;23688;33.130;-117.188;2023-03-01T05:13:40;99521.94;;;10.13;100.00
37848;BME280;23688;33.130;-117.188;2023-03-01T05:16:07;99523.69;;;10.14;100.00
37848;BME280;23688;33.130;-117.188;2023-03-01T05:18:37;99527.03;;;10.12;100.00
37848;BME280;23688;33.130;-117.188;2023-03-01T05:21:12;99526.22;;;10.13;100.00
37848;BME280;23688;33.130;-117.188;2023-03-01T05:23:48;99527.75;;;10.07;100.00
37848;BME280;23688;33.130;-117.188;2023-03-01T05:26:16;99521.81;;;10.10;100.00
37848;BME280;23688;33.130;-117.188;2023-03-01T05:28:43;99512.94;;;10.05;100.00
37848;BME280;23688;33.130;-117.188;2023-03-01T05:31:09;99515.19;;;9.97;100.00
37848;BME280;23688;33.130;-117.188;2023-03-01T05:33:37;99501.19;;;9.94;100.00
37848;BME280;23688;33.130;-117.188;2023-03-01T05:36:06;99511.44;;;9.91;100.00
37848;BME280;23688;33.130;-117.188;2023-03-01T05:38:33;99504.06;;;10.00;100.00
37848;BME280;23688;33.130;-117.188;2023-03-01T05:41:00;99507.03;;;10.09;100.00
37848;BME280;23688;33.130;-117.188;2023-03-01T05:43:30;99507.88;;;10.08;100.00
37848;BME280;23688;33.130;-117.188;2023-03-01T05:46:05;99513.88;;;10.07;100.00
37848;BME280;23688;33.130;-117.188;2023-03-01T05:48:31;99513.06;;;10.08;100.00
37848;BME280;23688;33.130;-117.188;2023-03-01T05:50:59;99503.56;;;10.08;100.00
37848;BME280;23688;33.130;-117.188;2023-03-01T05:53:26;99498.13;;;10.02;100.00
37848;BME280;23688;33.130;-117.188;2023-03-01T05:55:54;99494.69;;;10.03;100.00
37848;BME280;23688;33.130;-117.188;2023-03-01T05:58:20;99490.16;;;9.98;100.00
37848;BME280;23688;33.130;-117.188;2023-03-01T06:00:48;99459.09;;;9.80;100.00
37848;BME280;23688;33.130;-117.188;2023-03-01T06:03:16;99474.44;;;9.95;100.00
37848;BME280;23688;33.130;-117.188;2023-03-01T06:05:43;99489.09;;;9.94;100.00
37848;BME280;23688;33.130;-117.188;2023-03-01T06:08:11;99466.94;;;9.81;100.00
37848;BME280;23688;33.130;-117.188;2023-03-01T06:10:38;99493.41;;;9.94;100.00
37848;BME280;23688;33.130;-117.188;2023-03-01T06:13:04;99495.34;;;9.98;100.00
37848;BME280;23688;33.130;-117.188;2023-03-01T06:15:31;99490.16;;;9.98;100.00
37848;BME280;23688;33.130;-117.188;2023-03-01T06:17:58;99487.41;;;9.95;100.00
37848;BME280;23688;33.130;-117.188;2023-03-01T06:20:26;99486.72;;;9.99;100.00
37848;BME280;23688;33.130;-117.188;2023-03-01T06:22:53;99485.34;;;10.07;100.00
37848;BME280;23688;33.130;-117.188;2023-03-01T06:25:25;99473.00;;;10.01;100.00
37848;BME280;23688;33.130;-117.188;2023-03-01T06:27:52;99463.34;;;9.97;100.00
37848;BME280;23688;33.130;-117.188;2023-03-01T06:30:21;99469.44;;;9.99;100.00
37848;BME280;23688;33.130;-117.188;2023-03-01T06:32:48;99467.59;;;9.97;100.00
37848;BME280;23688;33.130;-117.188;2023-03-01T06:35:17;99455.75;;;9.82;100.00
37848;BME280;23688;33.130;-117.188;2023-03-01T06:37:43;99466.41;;;9.89;100.00
37848;BME280;23688;33.130;-117.188;2023-03-01T06:40:11;99457.78;;;9.90;100.00
37848;BME280;23688;33.130;-117.188;2023-03-01T06:42:41;99441.09;;;9.83;100.00
37848;BME280;23688;33.130;-117.188;2023-03-01T06:45:09;99435.16;;;9.85;100.00
37848;BME280;23688;33.130;-117.188;2023-03-01T06:47:37;99437.31;;;9.96;100.00
37848;BME280;23688;33.130;-117.188;2023-03-01T06:50:05;99431.28;;;9.97;100.00
37848;BME280;23688;33.130;-117.188;2023-03-01T06:52:31;99419.81;;;9.90;100.00
37848;BME280;23688;33.130;-117.188;2023-03-01T06:54:58;99433.88;;;9.97;100.00
37848;BME280;23688;33.130;-117.188;2023-03-01T06:57:24;99411.31;;;9.94;100.00
37848;BME280;23688;33.130;-117.188;2023-03-01T06:59:50;99416.28;;;9.90;100.00
37848;BME280;23688;33.130;-117.188;2023-03-01T07:02:17;99412.91;;;9.91;100.00
37848;BME280;23688;33.130;-117.188;2023-03-01T07:04:43;99407.72;;;9.91;100.00
37848;BME280;23688;33.130;-117.188;2023-03-01T07:07:10;99407.75;;;9.92;100.00
37848;BME280;23688;33.130;-117.188;2023-03-01T07:09:37;99389.47;;;9.89;100.00
37848;BME280;23688;33.130;-117.188;2023-03-01T07:12:03;99393.09;;;9.93;100.00
37848;BME280;23688;33.130;-117.188;2023-03-01T07:14:30;99388.69;;;9.90;100.00
37848;BME280;23688;33.130;-117.188;2023-03-01T07:16:56;99394.03;;;9.95;100.00
37848;BME280;23688;33.130;-117.188;2023-03-01T07:19:23;99397.56;;;9.97;100.00
37848;BME280;23688;33.130;-117.188;2023-03-01T07:21:49;99386.44;;;9.99;100.00
37848;BME280;23688;33.130;-117.188;2023-03-01T07:24:15;99382.22;;;10.01;100.00
37848;BME280;23688;33.130;-117.188;2023-03-01T07:26:42;99389.00;;;9.98;100.00
37848;BME280;23688;33.130;-117.188;2023-03-01T07:29:10;99391.44;;;9.95;100.00
37848;BME280;23688;33.130;-117.188;2023-03-01T07:31:36;99356.28;;;9.80;100.00
37848;BME280;23688;33.130;-117.188;2023-03-01T07:34:03;99365.19;;;9.66;100.00
37848;BME280;23688;33.130;-117.188;2023-03-01T07:36:30;99353.06;;;9.46;100.00
37848;BME280;23688;33.130;-117.188;2023-03-01T07:38:56;99349.66;;;9.47;100.00
37848;BME280;23688;33.130;-117.188;2023-03-01T07:41:24;99362.28;;;9.39;100.00
37848;BME280;23688;33.130;-117.188;2023-03-01T07:43:50;99359.00;;;9.43;100.00
37848;BME280;23688;33.130;-117.188;2023-03-01T07:46:17;99358.41;;;9.49;100.00
37848;BME280;23688;33.130;-117.188;2023-03-01T07:48:45;99357.59;;;9.30;100.00
37848;BME280;23688;33.130;-117.188;2023-03-01T07:51:12;99367.59;;;9.42;100.00
37848;BME280;23688;33.130;-117.188;2023-03-01T07:53:38;99368.94;;;9.34;100.00
37848;BME280;23688;33.130;-117.188;2023-03-01T07:56:12;99366.72;;;9.22;100.00
37848;BME280;23688;33.130;-117.188;2023-03-01T07:58:40;99366.09;;;9.08;100.00
37848;BME280;23688;33.130;-117.188;2023-03-01T08:01:09;99379.06;;;8.71;100.00
37848;BME280;23688;33.130;-117.188;2023-03-01T08:03:35;99374.44;;;8.64;100.00
37848;BME280;23688;33.130;-117.188;2023-03-01T08:06:04;99361.31;;;8.61;100.00
37848;BME280;23688;33.130;-117.188;2023-03-01T08:08:31;99359.16;;;8.70;100.00
37848;BME280;23688;33.130;-117.188;2023-03-01T08:10:59;99356.47;;;8.86;100.00
37848;BME280;23688;33.130;-117.188;2023-03-01T08:13:26;99345.28;;;8.87;100.00
37848;BME280;23688;33.130;-117.188;2023-03-01T08:15:53;99358.63;;;8.95;100.00
37848;BME280;23688;33.130;-117.188;2023-03-01T08:18:20;99341.78;;;8.85;100.00
37848;BME280;23688;33.130;-117.188;2023-03-01T08:20:48;99336.59;;;8.85;100.00
37848;BME280;23688;33.130;-117.188;2023-03-01T08:23:14;99339.88;;;9.00;100.00
37848;BME280;23688;33.130;-117.188;2023-03-01T08:25:40;99332.31;;;8.86;100.00
37848;BME280;23688;33.130;-117.188;2023-03-01T08:28:06;99320.56;;;8.94;100.00
37848;BME280;23688;33.130;-117.188;2023-03-01T08:30:34;99324.78;;;8.92;100.00
37848;BME280;23688;33.130;-117.188;2023-03-01T08:33:02;99321.31;;;8.91;100.00
37848;BME280;23688;33.130;-117.188;2023-03-01T08:35:29;99326.72;;;8.96;100.00
37848;BME280;23688;33.130;-117.188;2023-03-01T08:37:55;99317.53;;;9.03;100.00
37848;BME280;23688;33.130;-117.188;2023-03-01T08:40:21;99303.94;;;9.08;100.00
37848;BME280;23688;33.130;-117.188;2023-03-01T08:42:48;99293.28;;;9.21;100.00
37848;BME280;23688;33.130;-117.188;2023-03-01T08:45:14;99291.09;;;9.10;100.00
37848;BME280;23688;33.130;-117.188;2023-03-01T08:47:44;99286.16;;;9.16;100.00
37848;BME280;23688;33.130;-117.188;2023-03-01T08:50:11;99283.63;;;9.17;100.00
37848;BME280;23688;33.130;-117.188;2023-03-01T08:52:37;99281.84;;;9.16;100.00
37848;BME280;23688;33.130;-117.188;2023-03-01T08:55:04;99271.38;;;9.13;100.00
37848;BME280;23688;33.130;-117.188;2023-03-01T08:57:30;99265.44;;;9.16;100.00
37848;BME280;23688;33.130;-117.188;2023-03-01T08:59:56;99287.66;;;9.11;100.00
37848;BME280;23688;33.130;-117.188;2023-03-01T09:02:23;99276.22;;;9.06;100.00
37848;BME280;23688;33.130;-117.188;2023-03-01T09:04:49;99247.84;;;9.09;100.00
37848;BME280;23688;33.130;-117.188;2023-03-01T09:07:15;99233.47;;;9.15;100.00
37848;BME280;23688;33.130;-117.188;2023-03-01T09:09:42;99238.91;;;9.21;100.00
37848;BME280;23688;33.130;-117.188;2023-03-01T09:12:08;99229.94;;;9.13;100.00
37848;BME280;23688;33.130;-117.188;2023-03-01T09:14:34;99241.81;;;9.08;100.00
37848;BME280;23688;33.130;-117.188;2023-03-01T09:17:02;99245.47;;;9.13;100.00
37848;BME280;23688;33.130;-117.188;2023-03-01T09:19:29;99234.09;;;9.10;100.00
37848;BME280;23688;33.130;-117.188;2023-03-01T09:21:55;99238.03;;;9.21;100.00
37848;BME280;23688;33.130;-117.188;2023-03-01T09:24:24;99236.31;;;9.21;100.00
37848;BME280;23688;33.130;-117.188;2023-03-01T09:26:54;99227.19;;;9.30;100.00
37848;BME280;23688;33.130;-117.188;2023-03-01T09:29:21;99229.56;;;9.25;100.00
37848;BME280;23688;33.130;-117.188;2023-03-01T09:31:48;99236.66;;;9.29;100.00
37848;BME280;23688;33.130;-117.188;2023-03-01T09:34:14;99235.25;;;9.37;100.00
37848;BME280;23688;33.130;-117.188;2023-03-01T09:36:49;99218.28;;;9.04;100.00
37848;BME280;23688;33.130;-117.188;2023-03-01T09:39:16;99207.53;;;8.94;100.00
37848;BME280;23688;33.130;-117.188;2023-03-01T09:42:04;99203.63;;;8.83;100.00
37848;BME280;23688;33.130;-117.188;2023-03-01T09:45:32;99193.72;;;8.74;100.00
37848;BME280;23688;33.130;-117.188;2023-03-01T09:47:31;99172.25;;;8.56;100.00
37848;BME280;23688;33.130;-117.188;2023-03-01T09:55:15;99186.34;;;9.03;100.00
37848;BME280;23688;33.130;-117.188;2023-03-01T09:57:50;99181.41;;;8.88;100.00
37848;BME280;23688;33.130;-117.188;2023-03-01T10:00:33;99177.66;;;8.82;100.00
37848;BME280;23688;33.130;-117.188;2023-03-01T10:03:17;99160.22;;;8.58;100.00
37848;BME280;23688;33.130;-117.188;2023-03-01T10:05:50;99154.06;;;8.54;100.00
37848;BME280;23688;33.130;-117.188;2023-03-01T10:08:53;99148.03;;;8.55;100.00
37848;BME280;23688;33.130;-117.188;2023-03-01T10:11:37;99147.66;;;8.66;100.00
37848;BME280;23688;33.130;-117.188;2023-03-01T10:14:43;99119.22;;;8.67;100.00
37848;BME280;23688;33.130;-117.188;2023-03-01T10:17:50;99130.63;;;8.71;100.00
37848;BME280;23688;33.130;-117.188;2023-03-01T10:20:41;99141.72;;;8.68;100.00
37848;BME280;23688;33.130;-117.188;2023-03-01T10:23:09;99131.91;;;8.81;100.00
37848;BME280;23688;33.130;-117.188;2023-03-01T10:28:31;99118.13;;;8.82;100.00
37848;BME280;23688;33.130;-117.188;2023-03-01T10:31:04;99113.06;;;8.85;100.00
37848;BME280;23688;33.130;-117.188;2023-03-01T10:33:32;99118.19;;;8.83;100.00
37848;BME280;23688;33.130;-117.188;2023-03-01T10:36:02;99112.91;;;8.61;100.00
37848;BME280;23688;33.130;-117.188;2023-03-01T10:38:31;99091.31;;;8.60;100.00
37848;BME280;23688;33.130;-117.188;2023-03-01T10:41:16;99097.47;;;8.83;100.00
37848;BME280;23688;33.130;-117.188;2023-03-01T10:44:09;99094.91;;;8.83;100.00
37848;BME280;23688;33.130;-117.188;2023-03-01T10:47:01;99083.59;;;8.81;100.00
37848;BME280;23688;33.130;-117.188;2023-03-01T10:49:27;99082.16;;;8.88;100.00
37848;BME280;23688;33.130;-117.188;2023-03-01T10:51:54;99040.94;;;8.73;100.00
37848;BME280;23688;33.130;-117.188;2023-03-01T10:54:31;99051.06;;;8.67;100.00
37848;BME280;23688;33.130;-117.188;2023-03-01T10:57:01;99074.44;;;8.89;100.00
37848;BME280;23688;33.130;-117.188;2023-03-01T10:59:32;99075.63;;;8.97;100.00
37848;BME280;23688;33.130;-117.188;2023-03-01T11:07:50;99033.88;;;8.90;100.00
37848;BME280;23688;33.130;-117.188;2023-03-01T11:10:25;99020.53;;;9.02;100.00
37848;BME280;23688;33.130;-117.188;2023-03-01T11:12:53;99010.09;;;8.77;100.00
37848;BME280;23688;33.130;-117.188;2023-03-01T11:15:28;99006.50;;;8.74;100.00
37848;BME280;23688;33.130;-117.188;2023-03-01T11:17:56;99014.56;;;8.82;100.00
37848;BME280;23688;33.130;-117.188;2023-03-01T11:22:59;99005.56;;;8.72;100.00
37848;BME280;23688;33.130;-117.188;2023-03-01T11:25:35;99005.75;;;8.76;100.00
37848;BME280;23688;33.130;-117.188;2023-03-01T11:28:04;98995.00;;;8.88;100.00
37848;BME280;23688;33.130;-117.188;2023-03-01T11:38:30;98968.16;;;8.86;100.00
37848;BME280;23688;33.130;-117.188;2023-03-01T11:44:00;98973.00;;;8.99;100.00
37848;BME280;23688;33.130;-117.188;2023-03-01T11:49:36;98970.56;;;9.03;100.00
37848;BME280;23688;33.130;-117.188;2023-03-01T11:57:35;98950.63;;;9.02;100.00
37848;BME280;23688;33.130;-117.188;2023-03-01T12:08:45;98954.44;;;9.10;100.00
37848;BME280;23688;33.130;-117.188;2023-03-01T12:17:30;98919.53;;;9.00;100.00
37848;BME280;23688;33.130;-117.188;2023-03-01T12:22:52;98924.13;;;9.07;100.00
37848;BME280;23688;33.130;-117.188;2023-03-01T12:34:01;98920.75;;;8.87;100.00
37848;BME280;23688;33.130;-117.188;2023-03-01T12:39:30;98918.44;;;8.72;100.00
37848;BME280;23688;33.130;-117.188;2023-03-01T12:45:06;98917.75;;;8.99;
37848;BME280;23688;33.130;-117.188;2023-03-01T12:47:57;98921.22;;;8.99;100.00
37848;BME280;23688;33.130;-117.188;2023-03-01T12:53:02;98907.56;;;9.04;100.00
37848;BME280;23688;33.130;-117.188;2023-03-01T12:55:36;98890.75;;;9.15;100.00
37848;BME280;23688;33.130;-117.188;2023-03-01T12:58:26;98903.56;;;9.12;100.00
37848;BME280;23688;33.130;-117.188;2023-03-01T13:01:16;98887.09;;;9.10;100.00
37848;BME280;23688;33.130;-117.188;2023-03-01T13:06:35;98892.22;;;9.08;100.00
37848;BME280;23688;33.130;-117.188;2023-03-01T13:09:46;98874.59;;;8.99;100.00
37848;BME280;23688;33.130;-117.188;2023-03-01T13:12:47;98881.78;;;9.07;100.00
37848;BME280;23688;33.130;-117.188;2023-03-01T13:15:36;98875.31;;;9.18;100.00
37848;BME280;23688;33.130;-117.188;2023-03-01T13:23:26;98842.91;;;9.29;100.00
37848;BME280;23688;33.130;-117.188;2023-03-01T13:26:04;98836.81;;;9.29;100.00
37848;BME280;23688;33.130;-117.188;2023-03-01T13:28:38;98837.16;;;9.38;100.00
37848;BME280;23688;33.130;-117.188;2023-03-01T13:33:49;98852.03;;;9.43;100.00
37848;BME280;23688;33.130;-117.188;2023-03-01T13:57:55;98807.59;;;9.07;100.00
37848;BME280;23688;33.130;-117.188;2023-03-01T14:00:37;98804.88;;;9.04;100.00
37848;BME280;23688;33.130;-117.188;2023-03-01T14:03:18;98781.72;;;9.07;100.00
37848;BME280;23688;33.130;-117.188;2023-03-01T14:08:27;98792.78;;;9.03;100.00
37848;BME280;23688;33.130;-117.188;2023-03-01T14:13:51;98827.97;;;9.22;100.00
37848;BME280;23688;33.130;-117.188;2023-03-01T14:19:20;98835.59;;;9.17;100.00
37848;BME280;23688;33.130;-117.188;2023-03-01T14:24:55;98845.53;;;9.07;100.00
37848;BME280;23688;33.130;-117.188;2023-03-01T14:27:43;98853.03;;;8.99;100.00
37848;BME280;23688;33.130;-117.188;2023-03-01T14:30:27;98848.63;;;8.96;100.00
37848;BME280;23688;33.130;-117.188;2023-03-01T14:32:56;98846.25;;;8.80;100.00
37848;BME280;23688;33.130;-117.188;2023-03-01T14:35:32;98842.69;;;8.76;100.00
37848;BME280;23688;33.130;-117.188;2023-03-01T14:37:59;98847.19;;;8.81;100.00
37848;BME280;23688;33.130;-117.188;2023-03-01T14:40:32;98845.47;;;8.59;100.00
37848;BME280;23688;33.130;-117.188;2023-03-01T14:43:01;98857.09;;;8.47;100.00
37848;BME280;23688;33.130;-117.188;2023-03-01T14:45:29;98867.91;;;8.39;100.00
37848;BME280;23688;33.130;-117.188;2023-03-01T14:48:01;98847.72;;;8.07;100.00
37848;BME280;23688;33.130;-117.188;2023-03-01T14:50:35;98881.88;;;8.21;100.00
37848;BME280;23688;33.130;-117.188;2023-03-01T14:53:06;98866.94;;;8.14;100.00
37848;BME280;23688;33.130;-117.188;2023-03-01T14:55:40;98869.28;;;8.08;100.00